Portada
METAR-TAF:

METAR-TAF

Aeroports :

El Oued, Algèria

latitud: 33-30-47N, longitud: 006-46-57E, altitud: 62 m

Observació

L'informe es va fer fa 15 hores i 54 minuts, a les 15:00 UTC
Vent 7 kt del Oest
Temperatura 17°C
Humitat 55%
Pressió 1010 hPa
Visibilitat 10 km o més
Escasses núvols a una alçada de 2600 ft

METAR: DAUO 201500Z 28007KT 9999 FEW026 17/08 Q1010

Hora: 07:54 (06:54 UTC)

Pronòstic

L'informe es va fer fa 16 hores i 54 minuts, a les 14:00 UTC
Pronòstic vàlid del 20 a les 15 UTC al 20 a les 24 UTC
Vent 8 kt del Oest
Visibilitat 10 km o més
Cel ennuvolat a una alçada de 2600 ft

TAF: DAUO 201400Z 2015/2024 26008KT 9999 BKN026

Observacions i pronòstics meteorològics de més de 4000 aeroports (METAR i TAF).

Les estacions disponibles són els punts grocs i vermells al mapa.

Posi el ratolí al punt desitjat per veure el nom de l'estació.

Feu clic per veure les observacions i els pronòstics meteorològics.

Per canviar el mapa: feu clic els botons verds amb una creu de color negre per apropar; al botó verd amb un guió per allunyar la imatge; o en les fletxes verdes per a mapes adjacents.


METAR-TAF: